首页
METAR-TAF:

METAR-TAF

机场 :

重庆江北国际机场

重庆, 中华人民共和国

纬度: 29-31N, 经度: 106-29E, 海拔: 351米

当前天气观测

该预报发布于39分钟前的14:00 UTC
风速4节,风向
温度 16°C
湿度 94%
气压 1020 hPa
能見度: 6000
少量云层高于3300英尺
阴天层高于5000英尺

METAR: ZUCK 231400Z 01002MPS 6000 FEW033 OVC050 16/15 Q1020 NOSIG

时间: 22:39 (14:39 UTC)

预报

该预报发布于5小时和36分钟前的09:03 UTC
预报有效从23日的 12点(UTC)到 24日的 12点(UTC)
风速4节,风向北转东北
能見度: 5000
阴天层高于4600英尺
轻雾
短暂存在
从 23日的 18点(UTC)到 23日的 24点(UTC)
能見度: 2800
少量云层高于600英尺
散云层高于2000英尺
阴天层高于4000英尺
小雨, 轻雾

TAF: ZUCK 230903Z 2312/2412 03002MPS 5000 BR OVC046 TX17/2408Z TN15/2322Z TEMPO 2318/2324 2800 -RA BR FEW006 SCT020 OVC040

超过4000个机场的气象观测和天气预报(METAR&TAF报告)。

可查询的气象台以黄色和红色小点在地图上表示。

将鼠标移到小点上方,可查看气象台名称。

然后点击查看天气观测和预报。

如需切换地图:点击带黑十字的绿色按钮放大地图;点击带横线的绿色按钮缩小地图;或者点击绿色箭头查看邻近地区的地图。


METAR-TAF: